sensor_id;sensor_type;location;lat;lon;timestamp;pressure;altitude;pressure_sealevel;temperature
73662;BMP280;61956;52.540;13.382;2023-02-28T00:11:04;78125.56;;;2.40
73662;BMP280;61956;52.540;13.382;2023-02-28T00:13:38;78367.34;;;2.43
73662;BMP280;61956;52.540;13.382;2023-02-28T00:16:33;78460.81;;;2.40
73662;BMP280;61956;52.540;13.382;2023-02-28T00:19:33;78165.00;;;2.39
73662;BMP280;61956;52.540;13.382;2023-02-28T00:22:35;78714.84;;;2.40
73662;BMP280;61956;52.540;13.382;2023-02-28T00:25:26;79035.47;;;2.43
73662;BMP280;61956;52.540;13.382;2023-02-28T00:34:59;79869.50;;;2.46
73662;BMP280;61956;52.540;13.382;2023-02-28T00:37:43;80429.84;;;2.51
73662;BMP280;61956;52.540;13.382;2023-02-28T00:40:38;80343.34;;;2.53
73662;BMP280;61956;52.540;13.382;2023-02-28T00:43:27;80824.50;;;2.53
73662;BMP280;61956;52.540;13.382;2023-02-28T00:46:24;80770.47;;;2.55
73662;BMP280;61956;52.540;13.382;2023-02-28T00:52:34;81708.88;;;2.61
73662;BMP280;61956;52.540;13.382;2023-02-28T00:55:23;81543.53;;;2.57
73662;BMP280;61956;52.540;13.382;2023-02-28T00:58:24;81235.78;;;2.59
73662;BMP280;61956;52.540;13.382;2023-02-28T01:01:17;81177.34;;;2.53
73662;BMP280;61956;52.540;13.382;2023-02-28T01:03:58;80923.66;;;2.53
73662;BMP280;61956;52.540;13.382;2023-02-28T01:39:35;75293.44;;;2.14
73662;BMP280;61956;52.540;13.382;2023-02-28T01:42:59;75404.44;;;2.14
73662;BMP280;61956;52.540;13.382;2023-02-28T01:46:56;75924.81;;;2.16
73662;BMP280;61956;52.540;13.382;2023-02-28T01:50:28;75400.19;;;2.12
73662;BMP280;61956;52.540;13.382;2023-02-28T02:18:30;70524.34;;;1.76
73662;BMP280;61956;52.540;13.382;2023-02-28T02:25:47;66247.81;;;1.47
73662;BMP280;61956;52.540;13.382;2023-02-28T02:47:26;56451.53;;;0.77
73662;BMP280;61956;52.540;13.382;2023-02-28T02:50:53;56146.16;;;0.72
73662;BMP280;61956;52.540;13.382;2023-02-28T02:57:27;56683.19;;;0.71
73662;BMP280;61956;52.540;13.382;2023-02-28T03:27:03;53701.47;;;0.39
73662;BMP280;61956;52.540;13.382;2023-02-28T03:30:38;52786.88;;;0.31
73662;BMP280;61956;52.540;13.382;2023-02-28T03:37:05;52350.59;;;0.28
73662;BMP280;61956;52.540;13.382;2023-02-28T03:44:03;51500.59;;;0.21
73662;BMP280;61956;52.540;13.382;2023-02-28T03:48:11;51272.31;;;0.18
73662;BMP280;61956;52.540;13.382;2023-02-28T03:51:48;50983.47;;;0.10
73662;BMP280;61956;52.540;13.382;2023-02-28T03:55:19;49697.31;;;0.02
73662;BMP280;61956;52.540;13.382;2023-02-28T03:59:00;48732.84;;;-0.02
73662;BMP280;61956;52.540;13.382;2023-02-28T04:02:28;47636.63;;;-0.09
73662;BMP280;61956;52.540;13.382;2023-02-28T04:05:33;47675.63;;;-0.11
73662;BMP280;61956;52.540;13.382;2023-02-28T04:09:15;46657.31;;;-0.18
73662;BMP280;61956;52.540;13.382;2023-02-28T04:12:56;45939.63;;;-0.26
73662;BMP280;61956;52.540;13.382;2023-02-28T04:16:10;46158.81;;;-0.24
73662;BMP280;61956;52.540;13.382;2023-02-28T04:19:13;45998.94;;;-0.27
73662;BMP280;61956;52.540;13.382;2023-02-28T04:30:18;45211.84;;;-0.38
73662;BMP280;61956;52.540;13.382;2023-02-28T04:33:22;44347.28;;;-0.43
73662;BMP280;61956;52.540;13.382;2023-02-28T04:36:12;43981.03;;;-0.45
73662;BMP280;61956;52.540;13.382;2023-02-28T04:38:49;43702.88;;;-0.51
73662;BMP280;61956;52.540;13.382;2023-02-28T04:41:47;44398.16;;;-0.45
73662;BMP280;61956;52.540;13.382;2023-02-28T04:44:49;43955.72;;;-0.50
73662;BMP280;61956;52.540;13.382;2023-02-28T04:47:47;43755.59;;;-0.54
73662;BMP280;61956;52.540;13.382;2023-02-28T06:41:39;49617.78;;;-0.47
73662;BMP280;61956;52.540;13.382;2023-02-28T06:47:38;50167.06;;;-0.41
73662;BMP280;61956;52.540;13.382;2023-02-28T06:51:00;50422.44;;;-0.41
73662;BMP280;61956;52.540;13.382;2023-02-28T06:57:12;52632.25;;;-0.27
73662;BMP280;61956;52.540;13.382;2023-02-28T07:00:23;53609.16;;;-0.22
73662;BMP280;61956;52.540;13.382;2023-02-28T07:03:21;54681.47;;;-0.16
73662;BMP280;61956;52.540;13.382;2023-02-28T07:06:24;55717.56;;;-0.10
73662;BMP280;61956;52.540;13.382;2023-02-28T07:09:27;57219.69;;;0.00
73662;BMP280;61956;52.540;13.382;2023-02-28T07:24:14;62075.34;;;0.27
73662;BMP280;61956;52.540;13.382;2023-02-28T07:27:14;62658.19;;;0.29
73662;BMP280;61956;52.540;13.382;2023-02-28T07:30:45;63654.16;;;0.41
73662;BMP280;61956;52.540;13.382;2023-02-28T07:33:53;64691.97;;;0.43
73662;BMP280;61956;52.540;13.382;2023-02-28T07:36:52;64849.69;;;0.45
73662;BMP280;61956;52.540;13.382;2023-02-28T07:43:07;66894.22;;;0.58
73662;BMP280;61956;52.540;13.382;2023-02-28T07:45:51;68104.44;;;0.67
73662;BMP280;61956;52.540;13.382;2023-02-28T07:48:34;69757.03;;;0.78
73662;BMP280;61956;52.540;13.382;2023-02-28T07:51:29;70545.69;;;0.86
73662;BMP280;61956;52.540;13.382;2023-02-28T07:54:13;71115.00;;;0.89
73662;BMP280;61956;52.540;13.382;2023-02-28T07:56:58;72499.66;;;0.98
73662;BMP280;61956;52.540;13.382;2023-02-28T07:59:48;76439.00;;;1.23
73662;BMP280;61956;52.540;13.382;2023-02-28T08:02:19;75452.53;;;1.16
73662;BMP280;61956;52.540;13.382;2023-02-28T08:05:01;77799.88;;;1.32
73662;BMP280;61956;52.540;13.382;2023-02-28T08:07:49;82276.06;;;1.61
73662;BMP280;61956;52.540;13.382;2023-02-28T08:10:20;83556.28;;;1.71
73662;BMP280;61956;52.540;13.382;2023-02-28T08:13:03;84270.28;;;1.79
73662;BMP280;61956;52.540;13.382;2023-02-28T08:15:40;83763.59;;;1.76
73662;BMP280;61956;52.540;13.382;2023-02-28T08:18:12;85452.25;;;1.90
73662;BMP280;61956;52.540;13.382;2023-02-28T08:20:44;84122.97;;;1.83
73662;BMP280;61956;52.540;13.382;2023-02-28T08:23:14;88719.94;;;2.15
73662;BMP280;61956;52.540;13.382;2023-02-28T08:26:00;88719.47;;;2.17
73662;BMP280;61956;52.540;13.382;2023-02-28T08:28:32;91531.16;;;2.35
73662;BMP280;61956;52.540;13.382;2023-02-28T08:34:27;90917.34;;;2.37
73662;BMP280;61956;52.540;13.382;2023-02-28T08:37:11;90527.34;;;2.39
73662;BMP280;61956;52.540;13.382;2023-02-28T08:39:49;90125.50;;;2.38
73662;BMP280;61956;52.540;13.382;2023-02-28T08:42:33;91818.16;;;2.50
73662;BMP280;61956;52.540;13.382;2023-02-28T08:45:11;93127.50;;;2.59
73662;BMP280;61956;52.540;13.382;2023-02-28T08:51:14;94921.41;;;2.77
73662;BMP280;61956;52.540;13.382;2023-02-28T08:53:58;94608.84;;;2.76
73662;BMP280;61956;52.540;13.382;2023-02-28T08:56:33;93500.50;;;2.73
73662;BMP280;61956;52.540;13.382;2023-02-28T08:59:04;96955.50;;;2.95
73662;BMP280;61956;52.540;13.382;2023-02-28T09:01:41;97594.22;;;3.01
73662;BMP280;61956;52.540;13.382;2023-02-28T09:04:26;96197.19;;;2.96
73662;BMP280;61956;52.540;13.382;2023-02-28T09:07:05;95952.06;;;2.98
73662;BMP280;61956;52.540;13.382;2023-02-28T09:09:49;99663.09;;;3.21
73662;BMP280;61956;52.540;13.382;2023-02-28T09:12:37;100439.22;;;3.31
73662;BMP280;61956;52.540;13.382;2023-02-28T09:15:24;98899.97;;;3.24
73662;BMP280;61956;52.540;13.382;2023-02-28T09:21:45;103304.41;;;3.58
73662;BMP280;61956;52.540;13.382;2023-02-28T09:27:15;102923.22;;;3.64
73662;BMP280;61956;52.540;13.382;2023-02-28T09:32:56;99974.59;;;3.50
73662;BMP280;61956;52.540;13.382;2023-02-28T09:35:25;100657.50;;;3.57
73662;BMP280;61956;52.540;13.382;2023-02-28T09:37:59;102678.09;;;3.69
73662;BMP280;61956;52.540;13.382;2023-02-28T09:40:28;102444.25;;;3.72
73662;BMP280;61956;52.540;13.382;2023-02-28T09:42:59;104184.41;;;3.83
73662;BMP280;61956;52.540;13.382;2023-02-28T09:45:33;105331.59;;;3.93
73662;BMP280;61956;52.540;13.382;2023-02-28T09:48:10;104600.94;;;3.93
73662;BMP280;61956;52.540;13.382;2023-02-28T09:50:46;102268.88;;;3.82
73662;BMP280;61956;52.540;13.382;2023-02-28T09:53:26;102346.41;;;3.85
73662;BMP280;61956;52.540;13.382;2023-02-28T09:56:01;102696.25;;;3.87
73662;BMP280;61956;52.540;13.382;2023-02-28T09:58:39;105388.50;;;4.06
73662;BMP280;61956;52.540;13.382;2023-02-28T10:01:19;106337.06;;;4.15
73662;BMP280;61956;52.540;13.382;2023-02-28T10:03:59;106107.22;;;4.18
73662;BMP280;61956;52.540;13.382;2023-02-28T10:06:36;106354.00;;;4.23
73662;BMP280;61956;52.540;13.382;2023-02-28T10:09:16;107372.75;;;4.30
73662;BMP280;61956;52.540;13.382;2023-02-28T10:11:50;108141.56;;;4.41
73662;BMP280;61956;52.540;13.382;2023-02-28T10:14:24;107345.25;;;4.37
73662;BMP280;61956;52.540;13.382;2023-02-28T10:16:59;107132.47;;;4.41
73662;BMP280;61956;52.540;13.382;2023-02-28T10:19:38;108163.88;;;4.51
73662;BMP280;61956;52.540;13.382;2023-02-28T10:22:16;108557.06;;;4.55
73662;BMP280;61956;52.540;13.382;2023-02-28T10:24:54;109125.59;;;4.62
73662;BMP280;61956;52.540;13.382;2023-02-28T10:27:30;108234.31;;;4.59
73662;BMP280;61956;52.540;13.382;2023-02-28T10:30:02;107496.09;;;4.58
73662;BMP280;61956;52.540;13.382;2023-02-28T10:32:33;107502.91;;;4.60
73662;BMP280;61956;52.540;13.382;2023-02-28T10:35:14;113306.47;;;4.99
73662;BMP280;61956;52.540;13.382;2023-02-28T10:37:49;115772.88;;;5.19
73662;BMP280;61956;52.540;13.382;2023-02-28T10:40:33;110351.69;;;4.93
73662;BMP280;61956;52.540;13.382;2023-02-28T10:43:06;110295.03;;;4.95
73662;BMP280;61956;52.540;13.382;2023-02-28T10:45:59;116981.13;;;5.38
73662;BMP280;61956;52.540;13.382;2023-02-28T10:48:34;112230.28;;;5.16
73662;BMP280;61956;52.540;13.382;2023-02-28T10:51:10;119405.97;;;5.63
73662;BMP280;61956;52.540;13.382;2023-02-28T10:53:50;121837.94;;;5.87
73662;BMP280;61956;52.540;13.382;2023-02-28T10:56:24;114048.53;;;5.46
73662;BMP280;61956;52.540;13.382;2023-02-28T10:59:01;109190.16;;;5.20
73662;BMP280;61956;52.540;13.382;2023-02-28T11:01:42;124399.03;;;6.10
73662;BMP280;61956;52.540;13.382;2023-02-28T11:14:39;117627.22;;;6.03
73662;BMP280;61956;52.540;13.382;2023-02-28T11:17:26;116141.34;;;5.98
73662;BMP280;61956;52.540;13.382;2023-02-28T11:19:58;112059.31;;;5.76
73662;BMP280;61956;52.540;13.382;2023-02-28T11:22:37;110484.22;;;5.69
73662;BMP280;61956;52.540;13.382;2023-02-28T11:25:16;121225.84;;;6.36
73662;BMP280;61956;52.540;13.382;2023-02-28T11:28:25;125750.13;;;6.75
73662;BMP280;61956;52.540;13.382;2023-02-28T11:31:09;113608.56;;;6.10
73662;BMP280;61956;52.540;13.382;2023-02-28T11:33:46;110092.25;;;5.87
73662;BMP280;61956;52.540;13.382;2023-02-28T11:36:20;111815.94;;;5.98
73662;BMP280;61956;52.540;13.382;2023-02-28T11:38:53;111803.06;;;5.99
73662;BMP280;61956;52.540;13.382;2023-02-28T11:41:34;108009.84;;;5.77
73662;BMP280;61956;52.540;13.382;2023-02-28T11:44:36;106663.47;;;5.68
73662;BMP280;61956;52.540;13.382;2023-02-28T11:47:26;104426.09;;;5.53
73662;BMP280;61956;52.540;13.382;2023-02-28T11:50:14;106098.97;;;5.63
73662;BMP280;61956;52.540;13.382;2023-02-28T11:52:53;108249.81;;;5.75
73662;BMP280;61956;52.540;13.382;2023-02-28T11:55:30;108699.72;;;5.82
73662;BMP280;61956;52.540;13.382;2023-02-28T11:58:20;108597.34;;;5.84
73662;BMP280;61956;52.540;13.382;2023-02-28T12:01:17;107844.63;;;5.80
73662;BMP280;61956;52.540;13.382;2023-02-28T12:04:14;106218.19;;;5.70
73662;BMP280;61956;52.540;13.382;2023-02-28T12:06:58;106199.28;;;5.69
73662;BMP280;61956;52.540;13.382;2023-02-28T12:09:50;106034.28;;;5.69
73662;BMP280;61956;52.540;13.382;2023-02-28T12:12:41;105223.41;;;5.64
73662;BMP280;61956;52.540;13.382;2023-02-28T12:18:51;104965.69;;;5.64
73662;BMP280;61956;52.540;13.382;2023-02-28T12:21:43;105554.84;;;5.68
73662;BMP280;61956;52.540;13.382;2023-02-28T12:24:38;107135.25;;;5.77
73662;BMP280;61956;52.540;13.382;2023-02-28T12:27:23;102666.44;;;5.51
73662;BMP280;61956;52.540;13.382;2023-02-28T12:30:04;103642.69;;;5.58
73662;BMP280;61956;52.540;13.382;2023-02-28T12:32:46;104873.66;;;5.66
73662;BMP280;61956;52.540;13.382;2023-02-28T12:35:22;107108.50;;;5.81
73662;BMP280;61956;52.540;13.382;2023-02-28T12:38:02;107576.25;;;5.86
73662;BMP280;61956;52.540;13.382;2023-02-28T12:40:43;107860.91;;;5.90
73662;BMP280;61956;52.540;13.382;2023-02-28T12:43:17;106833.22;;;5.86
73662;BMP280;61956;52.540;13.382;2023-02-28T12:45:51;107421.38;;;5.89
73662;BMP280;61956;52.540;13.382;2023-02-28T12:48:29;106371.50;;;5.86
73662;BMP280;61956;52.540;13.382;2023-02-28T12:51:03;106082.75;;;5.83
73662;BMP280;61956;52.540;13.382;2023-02-28T12:53:47;106253.69;;;5.87
73662;BMP280;61956;52.540;13.382;2023-02-28T12:56:32;107331.81;;;5.94
73662;BMP280;61956;52.540;13.382;2023-02-28T12:59:14;106744.50;;;5.92
73662;BMP280;61956;52.540;13.382;2023-02-28T13:02:09;106189.19;;;5.88
73662;BMP280;61956;52.540;13.382;2023-02-28T13:05:03;105698.41;;;5.86
73662;BMP280;61956;52.540;13.382;2023-02-28T13:08:05;105408.78;;;5.86
73662;BMP280;61956;52.540;13.382;2023-02-28T13:10:53;108445.09;;;6.06
73662;BMP280;61956;52.540;13.382;2023-02-28T13:13:25;108512.19;;;6.09
73662;BMP280;61956;52.540;13.382;2023-02-28T13:15:58;106898.22;;;6.01
73662;BMP280;61956;52.540;13.382;2023-02-28T13:18:32;108040.63;;;6.08
73662;BMP280;61956;52.540;13.382;2023-02-28T13:21:06;106580.84;;;6.01
73662;BMP280;61956;52.540;13.382;2023-02-28T13:24:01;104183.38;;;5.87
73662;BMP280;61956;52.540;13.382;2023-02-28T13:29:52;103959.28;;;5.85
73662;BMP280;61956;52.540;13.382;2023-02-28T13:32:42;102623.94;;;5.75
73662;BMP280;61956;52.540;13.382;2023-02-28T13:35:14;104749.56;;;5.88
73662;BMP280;61956;52.540;13.382;2023-02-28T13:38:25;107517.44;;;6.07
73662;BMP280;61956;52.540;13.382;2023-02-28T13:44:19;107914.88;;;6.14
73662;BMP280;61956;52.540;13.382;2023-02-28T13:47:23;108316.81;;;6.18
73662;BMP280;61956;52.540;13.382;2023-02-28T13:50:21;108298.72;;;6.21
73662;BMP280;61956;52.540;13.382;2023-02-28T13:53:11;108046.47;;;6.22
73662;BMP280;61956;52.540;13.382;2023-02-28T13:56:25;105669.91;;;6.08
73662;BMP280;61956;52.540;13.382;2023-02-28T13:59:07;106360.34;;;6.11
73662;BMP280;61956;52.540;13.382;2023-02-28T14:01:58;106199.47;;;6.12
73662;BMP280;61956;52.540;13.382;2023-02-28T14:04:53;107695.31;;;6.22
73662;BMP280;61956;52.540;13.382;2023-02-28T14:07:31;107786.53;;;6.24
73662;BMP280;61956;52.540;13.382;2023-02-28T14:10:27;109948.03;;;6.40
73662;BMP280;61956;52.540;13.382;2023-02-28T14:13:11;109074.53;;;6.37
73662;BMP280;61956;52.540;13.382;2023-02-28T14:15:56;106868.31;;;6.25
73662;BMP280;61956;52.540;13.382;2023-02-28T14:18:30;107606.59;;;6.29
73662;BMP280;61956;52.540;13.382;2023-02-28T14:21:11;107947.41;;;6.34
73662;BMP280;61956;52.540;13.382;2023-02-28T14:24:10;107688.31;;;6.33
73662;BMP280;61956;52.540;13.382;2023-02-28T14:27:03;107295.84;;;6.32
73662;BMP280;61956;52.540;13.382;2023-02-28T14:33:25;107695.13;;;6.37
73662;BMP280;61956;52.540;13.382;2023-02-28T14:36:13;106802.69;;;6.33
73662;BMP280;61956;52.540;13.382;2023-02-28T14:38:49;105250.28;;;6.25
73662;BMP280;61956;52.540;13.382;2023-02-28T14:41:23;103990.66;;;6.14
73662;BMP280;61956;52.540;13.382;2023-02-28T14:43:59;104717.56;;;6.19
73662;BMP280;61956;52.540;13.382;2023-02-28T14:46:36;106788.13;;;6.32
73662;BMP280;61956;52.540;13.382;2023-02-28T14:49:17;107534.97;;;6.39
73662;BMP280;61956;52.540;13.382;2023-02-28T14:51:49;107543.56;;;6.41
73662;BMP280;61956;52.540;13.382;2023-02-28T14:54:30;107895.66;;;6.44
73662;BMP280;61956;52.540;13.382;2023-02-28T14:56:59;106232.19;;;6.35
73662;BMP280;61956;52.540;13.382;2023-02-28T14:59:29;105114.25;;;6.28
73662;BMP280;61956;52.540;13.382;2023-02-28T15:02:17;105496.88;;;6.30
73662;BMP280;61956;52.540;13.382;2023-02-28T15:04:55;105961.22;;;6.33
73662;BMP280;61956;52.540;13.382;2023-02-28T15:07:26;105841.69;;;6.33
73662;BMP280;61956;52.540;13.382;2023-02-28T15:10:10;104601.94;;;6.26
73662;BMP280;61956;52.540;13.382;2023-02-28T15:12:50;102749.84;;;6.15
73662;BMP280;61956;52.540;13.382;2023-02-28T15:15:27;100570.50;;;6.01
73662;BMP280;61956;52.540;13.382;2023-02-28T15:18:06;100276.81;;;5.95
73662;BMP280;61956;52.540;13.382;2023-02-28T15:20:45;101107.84;;;6.00
73662;BMP280;61956;52.540;13.382;2023-02-28T15:23:15;101052.16;;;5.99
73662;BMP280;61956;52.540;13.382;2023-02-28T15:25:46;99778.13;;;5.91
73662;BMP280;61956;52.540;13.382;2023-02-28T15:28:19;99954.91;;;5.90
73662;BMP280;61956;52.540;13.382;2023-02-28T15:30:56;101073.16;;;5.96
73662;BMP280;61956;52.540;13.382;2023-02-28T15:33:29;102687.25;;;6.05
73662;BMP280;61956;52.540;13.382;2023-02-28T15:36:13;100664.72;;;5.95
73662;BMP280;61956;52.540;13.382;2023-02-28T15:38:51;99770.84;;;5.88
73662;BMP280;61956;52.540;13.382;2023-02-28T15:41:28;100081.22;;;5.89
73662;BMP280;61956;52.540;13.382;2023-02-28T15:44:13;99672.47;;;5.86
73662;BMP280;61956;52.540;13.382;2023-02-28T15:46:54;100047.97;;;5.87
73662;BMP280;61956;52.540;13.382;2023-02-28T15:49:28;101534.88;;;5.96
73662;BMP280;61956;52.540;13.382;2023-02-28T15:52:03;103757.22;;;6.10
73662;BMP280;61956;52.540;13.382;2023-02-28T15:54:34;103228.13;;;6.08
73662;BMP280;61956;52.540;13.382;2023-02-28T15:57:11;101228.44;;;5.96
73662;BMP280;61956;52.540;13.382;2023-02-28T15:59:50;98711.94;;;5.80
73662;BMP280;61956;52.540;13.382;2023-02-28T16:02:22;99032.47;;;5.81
73662;BMP280;61956;52.540;13.382;2023-02-28T16:08:13;99629.94;;;5.83
73662;BMP280;61956;52.540;13.382;2023-02-28T16:10:43;96983.94;;;5.66
73662;BMP280;61956;52.540;13.382;2023-02-28T16:13:13;94189.25;;;5.47
73662;BMP280;61956;52.540;13.382;2023-02-28T16:15:43;93079.56;;;5.37
73662;BMP280;61956;52.540;13.382;2023-02-28T16:18:14;94006.59;;;5.41
73662;BMP280;61956;52.540;13.382;2023-02-28T16:20:44;95299.78;;;5.48
73662;BMP280;61956;52.540;13.382;2023-02-28T16:23:15;96631.31;;;5.56
73662;BMP280;61956;52.540;13.382;2023-02-28T16:25:45;93649.16;;;5.37
73662;BMP280;61956;52.540;13.382;2023-02-28T16:28:19;93774.50;;;5.35
73662;BMP280;61956;52.540;13.382;2023-02-28T16:30:52;91440.63;;;5.19
73662;BMP280;61956;52.540;13.382;2023-02-28T16:33:22;91447.28;;;5.16
73662;BMP280;61956;52.540;13.382;2023-02-28T16:35:52;89713.72;;;5.04
73662;BMP280;61956;52.540;13.382;2023-02-28T16:38:24;87711.00;;;4.88
73662;BMP280;61956;52.540;13.382;2023-02-28T16:40:56;88094.81;;;4.88
73662;BMP280;61956;52.540;13.382;2023-02-28T16:43:28;89192.78;;;4.94
73662;BMP280;61956;52.540;13.382;2023-02-28T16:45:58;87377.75;;;4.80
73662;BMP280;61956;52.540;13.382;2023-02-28T16:48:29;85590.97;;;4.69
73662;BMP280;61956;52.540;13.382;2023-02-28T16:50:59;86088.09;;;4.68
73662;BMP280;61956;52.540;13.382;2023-02-28T16:53:34;87707.41;;;4.76
73662;BMP280;61956;52.540;13.382;2023-02-28T16:56:04;86426.75;;;4.67
73662;BMP280;61956;52.540;13.382;2023-02-28T16:58:35;84853.19;;;4.55
73662;BMP280;61956;52.540;13.382;2023-02-28T17:01:05;84005.56;;;4.48
73662;BMP280;61956;52.540;13.382;2023-02-28T17:03:34;81700.13;;;4.31
73662;BMP280;61956;52.540;13.382;2023-02-28T17:06:16;82168.84;;;4.30
73662;BMP280;61956;52.540;13.382;2023-02-28T17:08:50;82907.59;;;4.33
73662;BMP280;61956;52.540;13.382;2023-02-28T17:11:20;80189.72;;;4.13
73662;BMP280;61956;52.540;13.382;2023-02-28T17:13:50;78914.22;;;4.04
73662;BMP280;61956;52.540;13.382;2023-02-28T17:16:23;79016.22;;;4.02
73662;BMP280;61956;52.540;13.382;2023-02-28T17:18:58;79590.00;;;4.02
73662;BMP280;61956;52.540;13.382;2023-02-28T17:21:28;80524.47;;;4.06
73662;BMP280;61956;52.540;13.382;2023-02-28T17:24:01;81688.19;;;4.11
73662;BMP280;61956;52.540;13.382;2023-02-28T17:26:35;82955.91;;;4.17
73662;BMP280;61956;52.540;13.382;2023-02-28T17:29:09;82132.56;;;4.11
73662;BMP280;61956;52.540;13.382;2023-02-28T17:31:43;81196.16;;;4.05
73662;BMP280;61956;52.540;13.382;2023-02-28T17:34:12;82041.38;;;4.08
73662;BMP280;61956;52.540;13.382;2023-02-28T17:36:44;81010.78;;;4.01
73662;BMP280;61956;52.540;13.382;2023-02-28T17:39:18;82388.88;;;4.08
73662;BMP280;61956;52.540;13.382;2023-02-28T17:41:50;79357.53;;;3.89
73662;BMP280;61956;52.540;13.382;2023-02-28T17:44:20;78650.00;;;3.81
73662;BMP280;61956;52.540;13.382;2023-02-28T17:46:51;76350.63;;;3.66
73662;BMP280;61956;52.540;13.382;2023-02-28T17:49:22;74140.84;;;3.50
73662;BMP280;61956;52.540;13.382;2023-02-28T17:51:51;74126.13;;;3.46
73662;BMP280;61956;52.540;13.382;2023-02-28T17:54:23;72546.78;;;3.35
73662;BMP280;61956;52.540;13.382;2023-02-28T17:56:52;71990.41;;;3.29
73662;BMP280;61956;52.540;13.382;2023-02-28T17:59:22;71079.44;;;3.22
73662;BMP280;61956;52.540;13.382;2023-02-28T18:01:51;71060.41;;;3.19
73662;BMP280;61956;52.540;13.382;2023-02-28T18:04:20;72214.22;;;3.23
73662;BMP280;61956;52.540;13.382;2023-02-28T18:06:49;72095.81;;;3.21
73662;BMP280;61956;52.540;13.382;2023-02-28T18:09:22;71195.38;;;3.12
73662;BMP280;61956;52.540;13.382;2023-02-28T18:11:53;72042.09;;;3.16
73662;BMP280;61956;52.540;13.382;2023-02-28T18:14:24;69921.78;;;3.02
73662;BMP280;61956;52.540;13.382;2023-02-28T18:16:54;69411.03;;;2.96
73662;BMP280;61956;52.540;13.382;2023-02-28T18:19:24;68545.22;;;2.89
73662;BMP280;61956;52.540;13.382;2023-02-28T18:21:53;68767.13;;;2.88
73662;BMP280;61956;52.540;13.382;2023-02-28T18:24:25;67934.63;;;2.81
73662;BMP280;61956;52.540;13.382;2023-02-28T18:26:54;67196.19;;;2.75
73662;BMP280;61956;52.540;13.382;2023-02-28T18:29:26;66336.66;;;2.68
73662;BMP280;61956;52.540;13.382;2023-02-28T18:31:56;65878.28;;;2.63
73662;BMP280;61956;52.540;13.382;2023-02-28T18:34:27;67323.72;;;2.68
73662;BMP280;61956;52.540;13.382;2023-02-28T18:36:56;66101.97;;;2.61
73662;BMP280;61956;52.540;13.382;2023-02-28T18:39:29;65780.75;;;2.56
73662;BMP280;61956;52.540;13.382;2023-02-28T18:41:58;65368.56;;;2.51
73662;BMP280;61956;52.540;13.382;2023-02-28T18:44:28;65189.59;;;2.49
73662;BMP280;61956;52.540;13.382;2023-02-28T18:46:57;66677.31;;;2.57
73662;BMP280;61956;52.540;13.382;2023-02-28T18:49:26;69078.47;;;2.68
73662;BMP280;61956;52.540;13.382;2023-02-28T18:51:55;71335.16;;;2.81
73662;BMP280;61956;52.540;13.382;2023-02-28T18:54:25;70391.28;;;2.76
73662;BMP280;61956;52.540;13.382;2023-02-28T18:57:02;71563.38;;;2.81
73662;BMP280;61956;52.540;13.382;2023-02-28T18:59:32;71108.78;;;2.78
73662;BMP280;61956;52.540;13.382;2023-02-28T19:02:01;69356.06;;;2.67
73662;BMP280;61956;52.540;13.382;2023-02-28T19:04:31;67778.19;;;2.57
73662;BMP280;61956;52.540;13.382;2023-02-28T19:07:00;67693.59;;;2.53
73662;BMP280;61956;52.540;13.382;2023-02-28T19:09:33;66554.88;;;2.46
73662;BMP280;61956;52.540;13.382;2023-02-28T19:12:03;67124.13;;;2.48
73662;BMP280;61956;52.540;13.382;2023-02-28T19:14:32;66106.19;;;2.39
73662;BMP280;61956;52.540;13.382;2023-02-28T19:17:01;64818.94;;;2.31
73662;BMP280;61956;52.540;13.382;2023-02-28T19:19:31;63522.63;;;2.21
73662;BMP280;61956;52.540;13.382;2023-02-28T19:22:00;61954.72;;;2.10
73662;BMP280;61956;52.540;13.382;2023-02-28T19:24:32;61017.97;;;2.04
73662;BMP280;61956;52.540;13.382;2023-02-28T19:27:02;60718.22;;;1.99
73662;BMP280;61956;52.540;13.382;2023-02-28T19:29:31;60540.09;;;1.94
73662;BMP280;61956;52.540;13.382;2023-02-28T19:32:00;61270.72;;;1.99
73662;BMP280;61956;52.540;13.382;2023-02-28T19:34:30;60226.28;;;1.90
73662;BMP280;61956;52.540;13.382;2023-02-28T19:36:59;59416.19;;;1.83
73662;BMP280;61956;52.540;13.382;2023-02-28T19:39:29;58921.59;;;1.80
73662;BMP280;61956;52.540;13.382;2023-02-28T19:42:09;58051.66;;;1.73
73662;BMP280;61956;52.540;13.382;2023-02-28T19:44:40;58280.47;;;1.72
73662;BMP280;61956;52.540;13.382;2023-02-28T19:47:12;57751.75;;;1.67
73662;BMP280;61956;52.540;13.382;2023-02-28T19:49:42;57556.94;;;1.63
73662;BMP280;61956;52.540;13.382;2023-02-28T19:52:11;57391.97;;;1.61
73662;BMP280;61956;52.540;13.382;2023-02-28T19:54:41;56972.25;;;1.56
73662;BMP280;61956;52.540;13.382;2023-02-28T19:57:12;57196.34;;;1.56
73662;BMP280;61956;52.540;13.382;2023-02-28T19:59:42;56537.19;;;1.50
73662;BMP280;61956;52.540;13.382;2023-02-28T20:02:13;55952.53;;;1.46
73662;BMP280;61956;52.540;13.382;2023-02-28T20:04:45;56847.59;;;1.48
73662;BMP280;61956;52.540;13.382;2023-02-28T20:07:16;56974.72;;;1.50
73662;BMP280;61956;52.540;13.382;2023-02-28T20:09:48;56251.97;;;1.43
73662;BMP280;61956;52.540;13.382;2023-02-28T20:12:19;56025.53;;;1.40
73662;BMP280;61956;52.540;13.382;2023-02-28T20:14:49;55642.75;;;1.37
73662;BMP280;61956;52.540;13.382;2023-02-28T20:17:20;54643.66;;;1.29
73662;BMP280;61956;52.540;13.382;2023-02-28T20:19:50;54377.66;;;1.27
73662;BMP280;61956;52.540;13.382;2023-02-28T20:22:19;53317.44;;;1.18
73662;BMP280;61956;52.540;13.382;2023-02-28T20:24:49;52571.09;;;1.14
73662;BMP280;61956;52.540;13.382;2023-02-28T20:27:21;52404.72;;;1.10
73662;BMP280;61956;52.540;13.382;2023-02-28T20:29:50;53107.88;;;1.13
73662;BMP280;61956;52.540;13.382;2023-02-28T20:32:19;52778.97;;;1.10
73662;BMP280;61956;52.540;13.382;2023-02-28T20:34:48;52704.56;;;1.08
73662;BMP280;61956;52.540;13.382;2023-02-28T20:37:18;52703.41;;;1.06
73662;BMP280;61956;52.540;13.382;2023-02-28T20:39:47;52260.84;;;1.02
73662;BMP280;61956;52.540;13.382;2023-02-28T20:42:18;51007.13;;;0.94
73662;BMP280;61956;52.540;13.382;2023-02-28T20:44:49;50234.53;;;0.88
73662;BMP280;61956;52.540;13.382;2023-02-28T20:47:18;49681.91;;;0.83
73662;BMP280;61956;52.540;13.382;2023-02-28T20:49:48;49808.75;;;0.81